Huvudsida
METAR-TAF:

METAR-TAF

Flygplatser :

Kramfors, Sverige

Höga Kusten Airport

latitud: 63-03N, longitud: 017-46E, höjd: 10 m

Aktuellt väderrapport

Denna rapport gjordes för 41 minuter sedan, klockan 10:20 UTC
Vind 13 kt från ost/sydost
Temperatur -4°C
Fuktighet 74%
Tryck 996 hPa
Sikt: 8000 m
underkylt, okänt

METAR: ESNK 171020Z AUTO 11013KT 8000 FZUP FEW035/// OVC047/// M04/M08 Q0996 REFZUP

Tid: 12:01 (11:01 UTC)

Väderprognos

Denna rapport gjordes för 2 timmar och 14 minuter sedan, klockan 08:47 UTC
Prognos gäller från 17 kl. 08 UTC till 17 kl. 10 UTC
Vind 15 kt från sydost i byarna ända upp till 25 kt
Sikt: 5000 m
Mulet på en höjd av 1500 ft
lätt snö
Temporärt
från 17 kl. 08 UTC till 17 kl. 10 UTC
Sikt: 2000 m
Brutna moln på en höjd av 300 ft
snö

TAF: ESNK 170847Z 1708/1710 13015G25KT 5000 -SN OVC015 TEMPO 1708/1710 2000 SN BKN003

Aktuella väderrapporter och prognoser från 4000 flygplatser (METAR- och TAF-rapporter).

De tillgängliga stationerna syns som gula och röda prickar på kartan.

För musen över prickarna för att se namnen på stationerna.

Klicka sedan för att få väderrapporter och prognoser.

För att ändra kartan: Klicka på de gröna knapparna med ett svart kors på för att zooma in; den gröna knappen med ett streck på för att zooma ut; eller på de gröna pilarna för angränsande kartor.


METAR-TAF: